Time;durP1;ratioP1;P1;durP2;ratioP2;P2;SDS_P1;SDS_P2;PMS_P1;PMS_P2;Temp;Humidity;BMP_temperature;BMP_pressure;BME280_temperature;BME280_humidity;BME280_pressure;Samples;Min_cycle;Max_cycle;Signal;HPM_P1;HPM_P2
2022/08/07 00:00:53;;;;;;;4.50;1.83;;;16.60;98.00;;;;;;5035106;28;20514;-90
2022/08/07 00:03:21;;;;;;;3.83;1.90;;;16.60;98.00;;;;;;5034543;28;20482;-90
2022/08/07 00:05:49;;;;;;;3.20;1.77;;;16.50;98.00;;;;;;5035003;28;20525;-90
2022/08/07 00:08:16;;;;;;;2.20;1.90;;;16.40;98.00;;;;;;5034317;28;20569;-90
2022/08/07 00:10:43;;;;;;;3.80;2.17;;;16.40;98.00;;;;;;5034825;28;20447;-90
2022/08/07 00:13:12;;;;;;;2.77;1.97;;;16.60;98.00;;;;;;5034653;28;20994;-89
2022/08/07 00:15:39;;;;;;;3.30;1.80;;;16.70;98.00;;;;;;5034363;28;20467;-89
2022/08/07 00:18:08;;;;;;;2.03;1.67;;;16.60;98.00;;;;;;5033835;28;20466;-89
2022/08/07 00:20:35;;;;;;;2.30;1.67;;;16.40;98.00;;;;;;5034389;28;20491;-89
2022/08/07 00:23:05;;;;;;;2.30;2.00;;;16.20;98.00;;;;;;5034520;28;20842;-89
2022/08/07 00:25:32;;;;;;;2.80;2.00;;;16.20;98.00;;;;;;5034088;28;20473;-89
2022/08/07 00:27:59;;;;;;;2.70;1.70;;;16.10;98.00;;;;;;5033876;28;20486;-89
2022/08/07 00:30:28;;;;;;;2.33;1.80;;;15.90;98.00;;;;;;5034597;28;20459;-90
2022/08/07 00:32:56;;;;;;;2.13;1.80;;;15.80;98.00;;;;;;5033775;28;20487;-90
2022/08/07 00:35:26;;;;;;;2.20;1.73;;;15.80;98.00;;;;;;5034072;28;20940;-89
2022/08/07 00:37:53;;;;;;;2.03;1.50;;;16.00;98.00;;;;;;5033469;28;20443;-89
2022/08/07 00:40:20;;;;;;;2.83;1.80;;;16.10;98.00;;;;;;5034323;28;20463;-89
2022/08/07 00:42:48;;;;;;;1.90;1.73;;;16.00;98.00;;;;;;5034176;28;21014;-89
2022/08/07 00:45:15;;;;;;;2.00;1.73;;;16.00;98.00;;;;;;5034280;28;20467;-90
2022/08/07 00:47:43;;;;;;;2.17;1.90;;;15.80;98.00;;;;;;5033110;28;20833;-90
2022/08/07 00:50:10;;;;;;;2.17;1.60;;;15.60;98.00;;;;;;5033698;28;20817;-90
2022/08/07 00:52:38;;;;;;;2.07;1.70;;;15.70;98.00;;;;;;5033941;28;20565;-89
2022/08/07 00:55:06;;;;;;;2.13;1.57;;;15.70;98.00;;;;;;5034001;28;20988;-89
2022/08/07 00:57:33;;;;;;;2.10;1.80;;;15.60;98.00;;;;;;5033051;28;20975;-89
2022/08/07 01:00:00;;;;;;;2.00;1.70;;;15.60;98.00;;;;;;5033721;28;20825;-90
2022/08/07 01:02:28;;;;;;;1.97;1.63;;;15.70;98.00;;;;;;5033594;28;20852;-89
2022/08/07 01:04:56;;;;;;;2.17;1.70;;;15.70;98.00;;;;;;5033732;28;20447;-89
2022/08/07 01:07:24;;;;;;;1.83;1.47;;;15.80;98.00;;;;;;5032763;28;20482;-90
2022/08/07 01:09:52;;;;;;;2.90;1.80;;;15.60;98.00;;;;;;5033574;28;20470;-89
2022/08/07 01:12:19;;;;;;;1.97;1.53;;;15.60;98.00;;;;;;5033383;28;20897;-90
2022/08/07 01:14:47;;;;;;;2.20;1.90;;;15.60;98.00;;;;;;5033408;28;20454;-89
2022/08/07 01:17:16;;;;;;;2.60;1.73;;;15.70;98.00;;;;;;5034571;28;20465;-89
2022/08/07 01:19:44;;;;;;;1.50;1.40;;;15.70;98.00;;;;;;5031810;28;20462;-89
2022/08/07 01:22:13;;;;;;;2.10;1.67;;;15.70;98.00;;;;;;5032992;28;20443;-89
2022/08/07 01:24:41;;;;;;;2.27;1.80;;;15.80;98.00;;;;;;5033575;28;20446;-89
2022/08/07 01:27:09;;;;;;;1.67;1.47;;;15.80;98.00;;;;;;5032800;28;20498;-89
2022/08/07 01:29:36;;;;;;;2.83;1.70;;;15.80;98.00;;;;;;5033052;28;20829;-89
2022/08/07 01:32:05;;;;;;;3.50;1.43;;;15.70;98.00;;;;;;5032902;28;20555;-89
2022/08/07 01:34:32;;;;;;;2.00;1.70;;;15.60;98.00;;;;;;5032920;28;20533;-89
2022/08/07 01:37:01;;;;;;;1.90;1.70;;;15.60;98.00;;;;;;5031748;28;20459;-89
2022/08/07 01:39:30;;;;;;;1.83;1.60;;;15.50;98.00;;;;;;5033084;28;20863;-89
2022/08/07 01:41:57;;;;;;;2.87;1.60;;;15.40;98.00;;;;;;5033220;28;20462;-89
2022/08/07 01:44:24;;;;;;;2.40;1.90;;;15.40;98.00;;;;;;5033054;28;20471;-89
2022/08/07 01:46:52;;;;;;;1.93;1.73;;;15.60;98.00;;;;;;5032186;28;20914;-89
2022/08/07 01:49:20;;;;;;;1.70;1.50;;;15.50;98.00;;;;;;5032465;28;20832;-89
2022/08/07 01:51:48;;;;;;;3.50;1.83;;;15.50;98.00;;;;;;5032618;28;20469;-89
2022/08/07 01:54:19;;;;;;;1.93;1.50;;;15.50;98.00;;;;;;5032729;28;21051;-90
2022/08/07 01:56:52;;;;;;;2.50;1.60;;;15.50;98.00;;;;;;5032309;28;20470;-89
2022/08/07 01:59:24;;;;;;;2.03;1.63;;;15.50;98.00;;;;;;5032522;28;20473;-90
2022/08/07 02:01:58;;;;;;;2.27;1.33;;;15.40;98.00;;;;;;5032486;28;20808;-89
2022/08/07 02:04:28;;;;;;;1.90;1.80;;;15.40;98.00;;;;;;5032640;28;20482;-90
2022/08/07 02:06:58;;;;;;;1.70;1.67;;;15.30;98.00;;;;;;5031839;28;20549;-89
2022/08/07 02:09:28;;;;;;;2.37;1.70;;;15.20;98.00;;;;;;5032694;28;20457;-89
2022/08/07 02:12:15;;;;;;;2.80;1.80;;;15.30;98.00;;;;;;5032274;28;20521;-90
2022/08/07 02:14:43;;;;;;;2.23;1.50;;;15.20;98.00;;;;;;5032680;28;20960;-89
2022/08/07 02:17:13;;;;;;;2.37;1.60;;;15.10;98.00;;;;;;5031343;28;20484;-89
2022/08/07 02:19:44;;;;;;;4.90;2.13;;;15.10;98.00;;;;;;5032273;28;20462;-89
2022/08/07 02:22:14;;;;;;;1.40;1.20;;;15.20;98.00;;;;;;5032352;28;20475;-89
2022/08/07 02:24:44;;;;;;;1.53;1.40;;;15.30;98.00;;;;;;5032224;28;20443;-89
2022/08/07 02:27:14;;;;;;;2.77;1.60;;;15.30;98.00;;;;;;5031729;28;20478;-89
2022/08/07 02:29:42;;;;;;;1.97;1.47;;;15.30;98.00;;;;;;5032267;28;20525;-89
2022/08/07 02:32:10;;;;;;;2.53;1.90;;;15.30;98.00;;;;;;5032020;28;20447;-89
2022/08/07 02:34:39;;;;;;;1.87;1.60;;;15.20;98.00;;;;;;5031818;28;20466;-89
2022/08/07 02:37:07;;;;;;;2.10;1.50;;;15.20;98.00;;;;;;5031669;28;20864;-89
2022/08/07 02:39:37;;;;;;;1.40;1.30;;;15.20;98.00;;;;;;5032207;28;20498;-89
2022/08/07 02:42:07;;;;;;;2.53;1.40;;;15.20;98.00;;;;;;5031959;28;20451;-89
2022/08/07 02:44:36;;;;;;;1.70;1.47;;;15.10;98.00;;;;;;5032237;28;20463;-89
2022/08/07 02:47:05;;;;;;;1.90;1.40;;;15.10;98.00;;;;;;5032465;28;20447;-90
2022/08/07 02:49:33;;;;;;;2.80;1.60;;;15.10;98.00;;;;;;5036230;28;20474;-89
2022/08/07 02:52:02;;;;;;;2.43;1.87;;;14.90;98.00;;;;;;5036200;28;20807;-89
2022/08/07 02:54:30;;;;;;;2.30;1.53;;;14.90;98.00;;;;;;5036228;28;20465;-89
2022/08/07 02:57:01;;;;;;;1.80;1.53;;;14.80;98.00;;;;;;5035277;28;20458;-90
2022/08/07 02:59:30;;;;;;;1.77;1.50;;;14.80;98.00;;;;;;5035833;28;20835;-89
2022/08/07 03:01:59;;;;;;;1.50;1.50;;;14.90;98.00;;;;;;5036127;28;20450;-90
2022/08/07 03:04:28;;;;;;;2.00;1.60;;;14.80;98.00;;;;;;5035908;28;20489;-89
2022/08/07 03:06:56;;;;;;;2.40;1.60;;;14.80;98.00;;;;;;5035185;28;20497;-89
2022/08/07 03:09:23;;;;;;;1.70;1.63;;;14.90;98.00;;;;;;5035739;28;20490;-89
2022/08/07 03:11:51;;;;;;;1.60;1.40;;;15.00;98.00;;;;;;5036159;28;20538;-89
2022/08/07 03:14:19;;;;;;;1.47;1.43;;;15.00;98.00;;;;;;5035399;28;20540;-88
2022/08/07 03:16:46;;;;;;;1.50;1.50;;;15.00;98.00;;;;;;5035479;28;20469;-89
2022/08/07 03:19:15;;;;;;;1.77;1.53;;;15.00;98.00;;;;;;5035071;28;20815;-89
2022/08/07 03:21:42;;;;;;;1.73;1.53;;;14.90;98.00;;;;;;5035914;28;20462;-89
2022/08/07 03:24:10;;;;;;;2.13;1.40;;;14.90;98.00;;;;;;5035437;28;20478;-90
2022/08/07 03:26:39;;;;;;;1.80;1.57;;;14.80;98.00;;;;;;5035313;28;20869;-89
2022/08/07 03:29:09;;;;;;;1.60;1.37;;;14.90;98.00;;;;;;5034620;28;20482;-90
2022/08/07 03:31:38;;;;;;;2.10;1.60;;;15.00;98.00;;;;;;5035393;28;20439;-90
2022/08/07 03:34:07;;;;;;;2.10;1.60;;;15.10;98.00;;;;;;5035295;28;20489;-89
2022/08/07 03:36:39;;;;;;;2.33;1.60;;;15.30;98.00;;;;;;5035199;28;20451;-89
2022/08/07 03:39:13;;;;;;;2.13;1.50;;;15.40;98.00;;;;;;5034736;28;20828;-90
2022/08/07 03:41:41;;;;;;;2.23;1.50;;;15.40;98.00;;;;;;5035451;28;20458;-89
2022/08/07 03:44:08;;;;;;;3.27;1.93;;;15.40;98.00;;;;;;5035252;28;20493;-89
2022/08/07 03:46:36;;;;;;;1.57;1.40;;;15.30;98.00;;;;;;5034946;28;20462;-89
2022/08/07 03:49:03;;;;;;;2.47;1.63;;;15.40;98.00;;;;;;5034622;28;20478;-90
2022/08/07 03:51:33;;;;;;;2.73;1.80;;;15.40;98.00;;;;;;5034943;28;20525;-89
2022/08/07 03:54:02;;;;;;;1.60;1.50;;;15.50;98.00;;;;;;5035314;28;20565;-88
2022/08/07 03:56:33;;;;;;;1.70;1.50;;;15.40;98.00;;;;;;5034966;28;20956;-89
2022/08/07 03:59:02;;;;;;;1.83;1.70;;;15.30;98.00;;;;;;5033599;28;20443;-89
2022/08/07 04:01:31;;;;;;;4.20;1.80;;;15.10;98.00;;;;;;5035151;28;20462;-89
2022/08/07 04:03:59;;;;;;;2.30;1.70;;;14.90;98.00;;;;;;5035205;28;20487;-89
2022/08/07 04:06:26;;;;;;;7.00;2.00;;;15.00;98.00;;;;;;5034990;28;20483;-90
2022/08/07 04:08:54;;;;;;;1.90;1.40;;;15.00;98.00;;;;;;5034221;28;20474;-89
2022/08/07 04:11:23;;;;;;;1.57;1.43;;;15.00;98.00;;;;;;5034533;28;20486;-89
2022/08/07 04:13:51;;;;;;;1.90;1.60;;;14.90;98.00;;;;;;5034567;28;20851;-89
2022/08/07 04:16:18;;;;;;;2.30;1.90;;;14.90;98.00;;;;;;5034694;28;20833;-90
2022/08/07 04:18:46;;;;;;;1.37;1.20;;;14.80;98.00;;;;;;5033997;28;20862;-90
2022/08/07 04:21:14;;;;;;;2.17;1.60;;;14.80;98.00;;;;;;5034577;28;20477;-89
2022/08/07 04:23:43;;;;;;;2.50;1.50;;;14.80;98.00;;;;;;5034373;28;20485;-89
2022/08/07 04:26:10;;;;;;;2.37;1.60;;;14.70;98.00;;;;;;5034218;28;20462;-89
2022/08/07 04:28:40;;;;;;;2.53;1.60;;;14.90;98.00;;;;;;5033489;28;20497;-90
2022/08/07 04:31:08;;;;;;;1.63;1.50;;;14.80;98.00;;;;;;5034401;28;20462;-89
2022/08/07 04:33:36;;;;;;;2.17;1.57;;;14.80;98.00;;;;;;5034407;28;20852;-88
2022/08/07 04:36:07;;;;;;;1.70;1.50;;;14.80;98.00;;;;;;5033944;28;20459;-89
2022/08/07 04:38:35;;;;;;;2.47;1.80;;;14.60;98.00;;;;;;5033512;28;20453;-90
2022/08/07 04:41:02;;;;;;;1.70;1.47;;;14.80;98.00;;;;;;5034338;28;20447;-90
2022/08/07 04:43:33;;;;;;;1.87;1.50;;;14.80;98.00;;;;;;5033873;28;20475;-89
2022/08/07 04:46:07;;;;;;;3.20;2.00;;;14.70;98.00;;;;;;5034261;28;20454;-90
2022/08/07 04:48:42;;;;;;;3.40;1.50;;;14.90;98.00;;;;;;5033526;28;20802;-90
2022/08/07 04:51:16;;;;;;;1.60;1.47;;;14.90;98.00;;;;;;5033911;28;20459;-89
2022/08/07 04:53:49;;;;;;;1.70;1.50;;;14.90;98.00;;;;;;5033849;28;20471;-90
2022/08/07 04:56:24;;;;;;;2.30;1.87;;;15.00;98.00;;;;;;5033817;28;20820;-89
2022/08/07 04:58:59;;;;;;;1.87;1.37;;;15.00;98.00;;;;;;5033116;28;20462;-89
2022/08/07 05:01:37;;;;;;;1.90;1.60;;;15.00;98.00;;;;;;5033532;28;20476;-89
2022/08/07 05:04:10;;;;;;;1.77;1.50;;;14.90;98.00;;;;;;5033840;28;20486;-89
2022/08/07 05:06:44;;;;;;;1.40;1.33;;;14.90;98.00;;;;;;5033375;28;20474;-89
2022/08/07 05:09:22;;;;;;;2.57;1.60;;;15.10;98.00;;;;;;5033231;28;21046;-90
2022/08/07 05:11:53;;;;;;;1.70;1.50;;;15.10;98.00;;;;;;5032749;28;20512;-90
2022/08/07 05:14:25;;;;;;;2.33;1.90;;;15.10;98.00;;;;;;5033451;28;21255;-89
2022/08/07 05:17:02;;;;;;;1.70;1.60;;;15.10;98.00;;;;;;5033402;28;20470;-90
2022/08/07 05:19:35;;;;;;;2.63;1.60;;;15.20;98.00;;;;;;5033221;28;21011;-89
2022/08/07 05:22:04;;;;;;;2.33;1.60;;;15.30;98.00;;;;;;5033263;28;20465;-90
2022/08/07 05:24:33;;;;;;;2.07;1.80;;;15.20;98.00;;;;;;5033404;28;20818;-90
2022/08/07 05:27:02;;;;;;;2.20;1.50;;;15.30;98.00;;;;;;5032675;28;21015;-90
2022/08/07 05:29:31;;;;;;;2.63;2.20;;;15.40;98.00;;;;;;5033128;28;20550;-90
2022/08/07 05:32:01;;;;;;;3.00;1.80;;;15.40;98.00;;;;;;5033366;28;20458;-89
2022/08/07 05:34:31;;;;;;;2.20;1.70;;;15.60;98.00;;;;;;5032952;28;20486;-89
2022/08/07 05:36:58;;;;;;;2.53;1.70;;;15.50;98.00;;;;;;5032131;28;20458;-90
2022/08/07 05:39:26;;;;;;;3.00;1.83;;;15.70;98.00;;;;;;5032772;28;20458;-90
2022/08/07 05:41:54;;;;;;;2.10;1.90;;;15.80;98.00;;;;;;5033191;28;20933;-89
2022/08/07 05:44:22;;;;;;;2.37;1.77;;;15.90;98.00;;;;;;5033248;28;20498;-89
2022/08/07 05:46:50;;;;;;;2.90;1.60;;;16.20;98.00;;;;;;5033180;28;20948;-89
2022/08/07 05:49:21;;;;;;;6.33;2.10;;;16.30;98.00;;;;;;5032519;28;20507;-90
2022/08/07 05:51:48;;;;;;;2.03;1.90;;;16.30;98.00;;;;;;5032707;28;20459;-90
2022/08/07 05:54:17;;;;;;;2.07;1.60;;;16.30;98.00;;;;;;5032463;28;20475;-89
2022/08/07 05:56:46;;;;;;;5.93;1.90;;;16.40;98.00;;;;;;5032691;28;20956;-90
2022/08/07 05:59:16;;;;;;;1.97;1.53;;;16.50;98.00;;;;;;5032320;28;20962;-89
2022/08/07 06:01:45;;;;;;;2.27;1.60;;;16.60;98.00;;;;;;5032383;28;20462;-89
2022/08/07 06:04:15;;;;;;;2.53;1.80;;;16.70;98.00;;;;;;5032738;28;20537;-89
2022/08/07 06:06:43;;;;;;;2.33;1.67;;;16.90;98.00;;;;;;5032256;28;20553;-90
2022/08/07 06:09:11;;;;;;;2.00;1.80;;;17.10;98.00;;;;;;5031459;28;20491;-90
2022/08/07 06:11:39;;;;;;;2.00;1.57;;;17.20;98.00;;;;;;5032508;28;20470;-89
2022/08/07 06:14:07;;;;;;;2.10;1.70;;;17.40;98.00;;;;;;5032437;28;20494;-89
2022/08/07 06:16:38;;;;;;;4.13;1.97;;;17.60;98.00;;;;;;5032473;28;20458;-90
2022/08/07 06:19:06;;;;;;;2.33;1.90;;;17.70;98.00;;;;;;5031938;28;20459;-90
2022/08/07 06:21:36;;;;;;;2.40;1.90;;;17.90;98.00;;;;;;5032351;28;20474;-90
2022/08/07 06:24:06;;;;;;;1.90;1.90;;;18.00;98.00;;;;;;5032374;28;20482;-89
2022/08/07 06:26:33;;;;;;;2.50;1.80;;;18.00;98.00;;;;;;5031969;28;20498;-89
2022/08/07 06:29:02;;;;;;;3.33;1.90;;;18.10;98.00;;;;;;5031701;28;20474;-89
2022/08/07 06:31:33;;;;;;;2.07;1.70;;;18.20;98.00;;;;;;5032158;28;20477;-90
2022/08/07 06:34:00;;;;;;;4.50;2.00;;;18.30;98.00;;;;;;5032060;28;20489;-89
2022/08/07 06:36:27;;;;;;;2.80;1.87;;;18.40;98.00;;;;;;5031946;28;20485;-89
2022/08/07 06:38:55;;;;;;;3.93;2.30;;;18.60;98.00;;;;;;5031517;28;20459;-90
2022/08/07 06:41:28;;;;;;;2.60;2.00;;;18.60;98.00;;;;;;5032016;28;20458;-89
2022/08/07 06:43:57;;;;;;;2.47;1.70;;;18.70;98.00;;;;;;5032004;28;20474;-89
2022/08/07 06:46:24;;;;;;;3.47;2.47;;;18.70;98.00;;;;;;5031870;28;20451;-89
2022/08/07 06:49:32;;;;;;;3.30;2.00;;;18.90;98.00;;;;;;5031160;28;21007;-89
2022/08/07 06:52:17;;;;;;;2.90;2.20;;;19.00;98.00;;;;;;5031685;28;20806;-89
2022/08/07 06:54:46;;;;;;;3.10;2.10;;;19.10;98.00;;;;;;5031713;28;20459;-89
2022/08/07 06:57:15;;;;;;;3.30;2.20;;;19.30;98.00;;;;;;5031426;28;20800;-89
2022/08/07 06:59:43;;;;;;;4.60;2.60;;;19.40;98.00;;;;;;5031905;28;20558;-88
2022/08/07 07:02:18;;;;;;;2.50;2.10;;;19.40;98.00;;;;;;5031708;28;20458;-88
2022/08/07 07:04:48;;;;;;;3.20;2.00;;;19.40;98.00;;;;;;5031953;28;20454;-89
2022/08/07 07:07:16;;;;;;;2.20;1.77;;;19.60;98.00;;;;;;5030874;28;20995;-88
2022/08/07 07:09:46;;;;;;;2.97;2.03;;;19.60;98.00;;;;;;5031669;28;20887;-89
2022/08/07 07:12:26;;;;;;;3.17;2.20;;;19.70;98.00;;;;;;5031745;28;20545;-89
2022/08/07 07:14:59;;;;;;;2.33;1.80;;;19.80;98.00;;;;;;5032239;28;20538;-88
2022/08/07 07:17:34;;;;;;;2.90;1.93;;;19.90;98.00;;;;;;5031019;28;20474;-88
2022/08/07 07:20:06;;;;;;;3.90;2.00;;;20.00;98.00;;;;;;5032264;28;20810;-88
2022/08/07 07:22:34;;;;;;;2.67;1.90;;;20.10;98.00;;;;;;5031553;28;20892;-88
2022/08/07 07:25:04;;;;;;;3.70;2.50;;;20.20;98.00;;;;;;5031627;28;20466;-88
2022/08/07 07:27:38;;;;;;;2.43;1.80;;;20.20;98.00;;;;;;5031097;28;20878;-87
2022/08/07 07:30:07;;;;;;;2.53;1.97;;;20.30;97.20;;;;;;5031916;28;20555;-88
2022/08/07 07:32:39;;;;;;;2.27;1.80;;;20.50;96.70;;;;;;5031797;28;20981;-90
2022/08/07 07:35:15;;;;;;;2.00;1.87;;;20.50;96.60;;;;;;5034482;28;20454;-88
2022/08/07 07:37:45;;;;;;;2.33;2.03;;;20.70;95.60;;;;;;5034263;28;20812;-88
2022/08/07 07:40:16;;;;;;;1.90;1.90;;;20.80;94.90;;;;;;5035583;28;20824;-88
2022/08/07 07:42:46;;;;;;;3.27;1.83;;;21.00;93.30;;;;;;5035134;28;20478;-90
2022/08/07 07:45:16;;;;;;;2.27;2.00;;;21.00;93.40;;;;;;5035395;28;20461;-90
2022/08/07 07:47:45;;;;;;;2.27;2.00;;;21.20;93.50;;;;;;5034288;28;20467;-90
2022/08/07 07:50:15;;;;;;;2.60;1.93;;;21.30;92.50;;;;;;5034857;28;20478;-91
2022/08/07 07:52:45;;;;;;;2.47;1.87;;;21.40;91.90;;;;;;5034961;28;20486;-90
2022/08/07 07:55:14;;;;;;;1.70;1.67;;;21.50;91.10;;;;;;5035313;28;20446;-90
2022/08/07 07:57:44;;;;;;;1.80;1.63;;;21.50;90.20;;;;;;5055666;28;20544;-91
2022/08/07 08:00:14;;;;;;;2.73;1.93;;;21.60;89.40;;;;;;5053313;28;20450;-89
2022/08/07 08:02:46;;;;;;;1.90;1.70;;;21.70;89.50;;;;;;5052429;28;20998;-91
2022/08/07 08:05:16;;;;;;;2.07;1.70;;;22.00;90.10;;;;;;5052334;28;20544;-91
2022/08/07 08:07:44;;;;;;;2.90;1.90;;;22.20;89.60;;;;;;5051589;28;20473;-89
2022/08/07 08:10:18;;;;;;;1.50;1.40;;;22.30;86.30;;;;;;5052177;28;20480;-89
2022/08/07 08:12:48;;;;;;;4.70;1.87;;;22.30;87.20;;;;;;5044152;28;20524;-89
2022/08/07 08:15:16;;;;;;;2.10;1.77;;;22.50;87.50;;;;;;5051807;28;20811;-90
2022/08/07 08:17:48;;;;;;;2.70;2.20;;;22.60;86.70;;;;;;5051353;28;20450;-90
2022/08/07 08:20:17;;;;;;;2.30;1.80;;;22.80;86.20;;;;;;5051773;28;20454;-89
2022/08/07 08:28:25;;;;;;;1.97;1.80;;;23.20;85.50;;;;;;5051293;28;20449;-89
2022/08/07 08:30:58;;;;;;;2.33;1.73;;;23.40;83.60;;;;;;5054536;28;20496;-89
2022/08/07 08:33:29;;;;;;;2.20;1.70;;;23.60;84.10;;;;;;5054295;28;20486;-89
2022/08/07 08:35:58;;;;;;;2.53;1.80;;;23.70;81.60;;;;;;5054294;28;20451;-89
2022/08/07 08:38:34;;;;;;;2.30;1.80;;;23.90;82.40;;;;;;5050658;28;20484;-88
2022/08/07 08:41:07;;;;;;;2.50;1.73;;;24.00;79.00;;;;;;5051230;28;20818;-89
2022/08/07 08:43:45;;;;;;;2.57;1.90;;;24.00;77.00;;;;;;5051020;28;20516;-88
2022/08/07 08:46:18;;;;;;;2.50;1.83;;;23.90;77.50;;;;;;5050731;28;20445;-88
2022/08/07 08:48:53;;;;;;;2.57;2.10;;;23.90;77.00;;;;;;5050429;28;20839;-89
2022/08/07 08:51:31;;;;;;;3.50;1.97;;;24.00;77.80;;;;;;5049286;28;20449;-88
2022/08/07 08:54:06;;;;;;;2.80;1.97;;;24.10;76.90;;;;;;5051397;28;20473;-87
2022/08/07 08:56:40;;;;;;;1.90;1.60;;;24.10;76.10;;;;;;5042969;28;20446;-88
2022/08/07 08:59:24;;;;;;;2.10;1.70;;;24.00;75.60;;;;;;5050452;28;20450;-89
2022/08/07 09:02:00;;;;;;;1.93;1.63;;;24.00;76.70;;;;;;5053517;28;20849;-89
2022/08/07 09:04:41;;;;;;;2.10;1.70;;;24.00;76.50;;;;;;5053859;28;20535;-89
2022/08/07 09:07:16;;;;;;;1.63;1.60;;;24.20;74.50;;;;;;5051883;28;20990;-89
2022/08/07 09:09:58;;;;;;;2.77;1.70;;;24.30;72.00;;;;;;5052007;28;20564;-89
2022/08/07 09:13:05;;;;;;;1.73;1.60;;;24.40;71.80;;;;;;5052362;28;20482;-90
2022/08/07 09:15:49;;;;;;;1.60;1.50;;;24.50;71.70;;;;;;5052307;28;20971;-89
2022/08/07 09:18:29;;;;;;;1.73;1.53;;;24.70;70.40;;;;;;5052206;28;20469;-91
2022/08/07 09:21:05;;;;;;;1.90;1.60;;;24.70;70.40;;;;;;5052666;28;20845;-90
2022/08/07 09:23:46;;;;;;;1.97;1.60;;;24.80;70.10;;;;;;5052092;28;20581;-91
2022/08/07 09:26:22;;;;;;;1.63;1.50;;;24.80;69.50;;;;;;5052258;28;20458;-92
2022/08/07 09:28:54;;;;;;;1.93;1.70;;;24.90;69.60;;;;;;5051573;28;20461;-91
2022/08/07 09:31:36;;;;;;;1.60;1.40;;;24.80;68.80;;;;;;5052128;28;20477;-91
2022/08/07 09:34:13;;;;;;;2.00;1.67;;;24.90;69.80;;;;;;5052287;28;20480;-91
2022/08/07 09:36:48;;;;;;;1.77;1.43;;;24.90;69.00;;;;;;5052257;28;21012;-91
2022/08/07 09:39:31;;;;;;;1.73;1.40;;;25.00;69.50;;;;;;5051716;28;20465;-91
2022/08/07 09:42:04;;;;;;;1.83;1.50;;;25.10;69.30;;;;;;5052242;28;20488;-91
2022/08/07 09:44:51;;;;;;;1.50;1.50;;;25.20;69.10;;;;;;5052507;28;20465;-91
2022/08/07 09:47:33;;;;;;;1.83;1.40;;;25.40;68.60;;;;;;5051502;28;20465;-92
2022/08/07 09:50:09;;;;;;;1.97;1.53;;;25.40;68.70;;;;;;5051840;28;20485;-92
2022/08/07 09:52:43;;;;;;;1.70;1.47;;;25.60;68.80;;;;;;5052133;28;20986;-91
2022/08/07 09:55:16;;;;;;;2.00;1.60;;;25.70;68.70;;;;;;5052262;28;20461;-92
2022/08/07 09:58:20;;;;;;;1.97;1.60;;;25.80;68.50;;;;;;5050511;28;20515;-91
2022/08/07 10:01:01;;;;;;;1.73;1.60;;;26.00;68.70;;;;;;5051942;28;20458;-92
2022/08/07 10:03:55;;;;;;;2.93;1.90;;;26.00;68.30;;;;;;5051912;28;20481;-91
2022/08/07 10:06:46;;;;;;;2.90;1.80;;;26.10;67.10;;;;;;5051540;28;20954;-92
2022/08/07 10:09:38;;;;;;;2.53;1.93;;;26.20;66.80;;;;;;5050970;28;20457;-91
2022/08/07 10:12:15;;;;;;;1.60;1.40;;;26.20;67.10;;;;;;5051476;28;20457;-91
2022/08/07 10:15:11;;;;;;;2.30;1.60;;;26.20;67.20;;;;;;5051672;28;20470;-91
2022/08/07 10:18:06;;;;;;;1.90;1.60;;;26.20;67.30;;;;;;5050773;28;20951;-91
2022/08/07 10:20:46;;;;;;;1.77;1.50;;;26.30;67.50;;;;;;5051603;28;20490;-92
2022/08/07 10:23:53;;;;;;;2.03;1.67;;;26.30;67.10;;;;;;5051680;28;20483;-92
2022/08/07 10:26:36;;;;;;;1.80;1.60;;;26.50;66.80;;;;;;5051035;28;20975;-92
2022/08/07 10:29:18;;;;;;;1.50;1.40;;;26.60;67.10;;;;;;5051354;28;20469;-93
2022/08/07 10:31:59;;;;;;;2.07;1.40;;;26.80;66.00;;;;;;5051950;28;20456;-93
2022/08/07 10:34:40;;;;;;;1.73;1.57;;;26.90;65.20;;;;;;5052101;28;20496;-93
2022/08/07 10:37:27;;;;;;;1.70;1.50;;;27.10;66.90;;;;;;5051725;28;20453;-93
2022/08/07 10:40:04;;;;;;;1.60;1.60;;;27.40;65.60;;;;;;5052358;28;20450;-93
2022/08/07 10:42:37;;;;;;;2.23;1.60;;;27.60;64.40;;;;;;5052205;28;20476;-92
2022/08/07 10:45:17;;;;;;;1.57;1.50;;;27.80;63.70;;;;;;5052142;28;20450;-93
2022/08/07 10:47:51;;;;;;;3.73;1.40;;;27.90;63.50;;;;;;5052030;28;20480;-91
2022/08/07 10:50:24;;;;;;;2.20;1.43;;;28.00;64.50;;;;;;5051949;28;20848;-91
2022/08/07 10:53:03;;;;;;;1.80;1.40;;;28.10;63.10;;;;;;5051320;28;21006;-92
2022/08/07 10:55:39;;;;;;;2.17;1.70;;;28.30;63.60;;;;;;5051127;28;20471;-92
2022/08/07 10:58:20;;;;;;;1.70;1.53;;;28.50;62.00;;;;;;5050060;28;20460;-92
2022/08/07 11:00:57;;;;;;;1.93;1.57;;;28.60;61.00;;;;;;5051053;28;20465;-92
2022/08/07 11:03:37;;;;;;;1.40;1.30;;;28.80;61.10;;;;;;5051005;28;20487;-92
2022/08/07 11:06:16;;;;;;;1.87;1.60;;;28.80;60.40;;;;;;5050928;28;20468;-92
2022/08/07 11:08:52;;;;;;;2.03;1.53;;;28.90;60.20;;;;;;5050825;28;20461;-92
2022/08/07 11:11:25;;;;;;;1.80;1.63;;;28.90;60.90;;;;;;5055072;28;20488;-92
2022/08/07 11:13:57;;;;;;;1.80;1.60;;;29.20;60.40;;;;;;5055000;28;20531;-92
2022/08/07 11:16:31;;;;;;;2.03;1.70;;;29.20;59.80;;;;;;5054895;28;20472;-92
2022/08/07 11:19:04;;;;;;;1.90;1.50;;;29.20;58.90;;;;;;5054382;28;20469;-92
2022/08/07 11:21:38;;;;;;;1.90;1.60;;;29.30;59.30;;;;;;5055213;28;20537;-92
2022/08/07 11:24:22;;;;;;;2.50;1.80;;;29.40;58.90;;;;;;5054889;28;20481;-92
2022/08/07 11:26:57;;;;;;;1.77;1.53;;;29.50;58.20;;;;;;5056455;28;20457;-92
2022/08/07 11:29:33;;;;;;;2.40;1.80;;;29.60;59.00;;;;;;5057895;28;20461;-92
2022/08/07 11:32:07;;;;;;;1.63;1.60;;;29.80;58.80;;;;;;5057368;28;20474;-92
2022/08/07 11:34:42;;;;;;;3.80;1.63;;;29.90;58.70;;;;;;5057153;28;20464;-92
2022/08/07 11:37:26;;;;;;;1.80;1.60;;;29.80;59.40;;;;;;5056918;28;20577;-91
2022/08/07 11:40:10;;;;;;;1.60;1.50;;;29.50;59.40;;;;;;5057329;28;20476;-92
2022/08/07 11:42:50;;;;;;;1.87;1.60;;;29.40;59.50;;;;;;5058032;28;20481;-91
2022/08/07 11:45:27;;;;;;;1.70;1.50;;;29.60;60.40;;;;;;5057543;28;20454;-92
2022/08/07 11:48:24;;;;;;;1.60;1.60;;;29.90;60.30;;;;;;5057095;28;20461;-91
2022/08/07 11:51:07;;;;;;;1.97;1.60;;;29.90;60.40;;;;;;5056991;28;20481;-91
2022/08/07 11:53:55;;;;;;;2.33;1.70;;;30.10;59.90;;;;;;5057734;28;20507;-91
2022/08/07 11:56:38;;;;;;;2.20;1.90;;;30.00;59.10;;;;;;5057127;28;20458;-92
2022/08/07 11:59:15;;;;;;;1.80;1.50;;;29.90;59.70;;;;;;5056660;28;20465;-93
2022/08/07 12:01:53;;;;;;;1.87;1.63;;;30.00;59.80;;;;;;5057294;28;20456;-92
2022/08/07 12:04:41;;;;;;;3.60;2.10;;;29.90;60.90;;;;;;5057187;28;20481;-92
2022/08/07 12:07:16;;;;;;;2.10;1.70;;;30.00;60.90;;;;;;5056554;28;20841;-92
2022/08/07 12:09:48;;;;;;;2.00;1.80;;;30.20;59.70;;;;;;5056754;28;20464;-91
2022/08/07 12:12:24;;;;;;;1.70;1.70;;;30.50;59.20;;;;;;5056852;28;20454;-92
2022/08/07 12:14:59;;;;;;;2.20;1.60;;;30.40;59.00;;;;;;5056699;28;20461;-91
2022/08/07 12:17:33;;;;;;;1.80;1.70;;;30.80;59.10;;;;;;5055575;28;20454;-91
2022/08/07 12:20:09;;;;;;;1.50;1.50;;;31.00;58.60;;;;;;5056393;28;20457;-92
2022/08/07 12:22:46;;;;;;;2.00;1.70;;;31.10;57.50;;;;;;5056263;28;20914;-92
2022/08/07 12:28:21;;;;;;;1.80;1.80;;;31.70;58.10;;;;;;5029731;28;20446;-92
2022/08/07 12:30:53;;;;;;;2.23;1.70;;;31.90;57.00;;;;;;5056632;28;20484;-92
2022/08/07 12:33:25;;;;;;;2.00;1.60;;;32.00;56.40;;;;;;5055935;28;20505;-92
2022/08/07 12:35:54;;;;;;;1.80;1.60;;;32.20;53.90;;;;;;5055975;28;20458;-92
2022/08/07 12:38:23;;;;;;;1.80;1.60;;;32.10;55.50;;;;;;5055488;28;20458;-92
2022/08/07 12:40:54;;;;;;;3.03;1.60;;;32.30;55.40;;;;;;5056331;28;20540;-92
2022/08/07 12:43:27;;;;;;;2.03;1.70;;;32.30;54.70;;;;;;5055798;28;20477;-92
2022/08/07 12:46:04;;;;;;;2.33;1.73;;;32.20;54.40;;;;;;5055951;28;20944;-93
2022/08/07 12:48:41;;;;;;;1.80;1.60;;;32.50;54.70;;;;;;5055272;28;20457;-92
2022/08/07 12:51:12;;;;;;;1.60;1.47;;;32.60;54.10;;;;;;5055727;28;20535;-92
2022/08/07 12:53:44;;;;;;;1.40;1.40;;;32.70;53.10;;;;;;5055670;28;20869;-92
2022/08/07 12:56:21;;;;;;;1.50;1.40;;;32.70;53.20;;;;;;5055637;28;20468;-92
2022/08/07 12:58:51;;;;;;;2.23;1.50;;;32.80;54.50;;;;;;5055593;28;20461;-92
2022/08/07 13:01:29;;;;;;;1.80;1.60;;;33.10;53.60;;;;;;5056591;28;20515;-92
2022/08/07 13:04:25;;;;;;;1.97;1.70;;;33.20;52.00;;;;;;5056374;28;20513;-91
2022/08/07 13:07:20;;;;;;;1.80;1.60;;;33.50;53.40;;;;;;5055323;28;20955;-92
2022/08/07 13:10:10;;;;;;;2.27;1.70;;;33.60;52.70;;;;;;5055976;28;20458;-92
2022/08/07 13:12:51;;;;;;;3.10;1.93;;;33.90;52.50;;;;;;5056301;28;20473;-92
2022/08/07 13:15:28;;;;;;;1.57;1.50;;;33.90;51.90;;;;;;5054568;28;20457;-93
2022/08/07 13:18:07;;;;;;;1.73;1.70;;;33.90;52.20;;;;;;5051980;28;20519;-92
2022/08/07 13:20:42;;;;;;;1.73;1.60;;;34.00;51.50;;;;;;5052983;28;20561;-92
2022/08/07 13:23:15;;;;;;;1.83;1.70;;;34.00;52.00;;;;;;5052756;28;20504;-92
2022/08/07 13:25:46;;;;;;;2.10;1.70;;;34.40;51.50;;;;;;5052472;28;20469;-92